createdAt,value
2018-06-05T00:02:24.676Z,99.90
2018-06-05T00:04:53.078Z,99.90
2018-06-05T00:07:21.489Z,99.90
2018-06-05T00:09:49.887Z,99.90
2018-06-05T00:12:18.284Z,99.90
2018-06-05T00:14:46.692Z,99.90
2018-06-05T00:17:15.099Z,99.90
2018-06-05T00:19:43.520Z,99.90
2018-06-05T00:22:11.904Z,99.90
2018-06-05T00:24:40.303Z,99.90
2018-06-05T00:27:08.691Z,99.90
2018-06-05T00:29:37.089Z,99.90
2018-06-05T00:32:05.475Z,99.90
2018-06-05T00:34:33.876Z,99.90
2018-06-05T00:37:02.276Z,99.90
2018-06-05T00:39:30.691Z,99.90
2018-06-05T00:41:59.086Z,99.90
2018-06-05T00:44:27.476Z,99.90
2018-06-05T00:46:55.892Z,99.90
2018-06-05T00:49:24.275Z,99.90
2018-06-05T00:52:04.044Z,99.90
2018-06-05T00:54:32.435Z,99.90
2018-06-05T00:57:00.849Z,99.90
2018-06-05T00:59:29.384Z,99.90
2018-06-05T01:01:57.831Z,99.90
2018-06-05T01:04:26.219Z,99.90
2018-06-05T01:06:54.628Z,99.90
2018-06-05T01:09:23.015Z,99.90
2018-06-05T01:11:51.421Z,99.90
2018-06-05T01:14:19.816Z,99.90
2018-06-05T01:16:48.216Z,99.90
2018-06-05T01:19:16.603Z,99.90
2018-06-05T01:21:45.005Z,99.90
2018-06-05T01:24:13.392Z,99.90
2018-06-05T01:26:41.813Z,99.90
2018-06-05T01:29:10.210Z,99.90
2018-06-05T01:31:38.631Z,99.90
2018-06-05T01:34:07.020Z,99.90
2018-06-05T01:36:35.431Z,99.90
2018-06-05T01:39:05.188Z,99.90
2018-06-05T01:41:33.615Z,99.90
2018-06-05T01:44:01.996Z,99.90
2018-06-05T01:46:30.392Z,99.90
2018-06-05T01:48:58.803Z,99.90
2018-06-05T01:51:27.188Z,99.90
2018-06-05T01:53:55.589Z,99.90
2018-06-05T01:56:23.985Z,99.90
2018-06-05T01:58:52.408Z,99.90
2018-06-05T02:01:20.788Z,99.90
2018-06-05T02:03:49.212Z,99.90
2018-06-05T02:06:17.611Z,99.90
2018-06-05T02:08:46.021Z,99.90
2018-06-05T02:11:14.404Z,99.90
2018-06-05T02:13:42.813Z,99.90
2018-06-05T02:16:11.183Z,99.90
2018-06-05T02:18:39.583Z,99.90
2018-06-05T02:21:07.968Z,99.90
2018-06-05T02:23:36.363Z,99.90
2018-06-05T02:26:04.905Z,99.90
2018-06-05T02:28:33.303Z,99.90
2018-06-05T02:31:01.699Z,99.90
2018-06-05T02:33:30.085Z,99.90
2018-06-05T02:35:58.496Z,99.90
2018-06-05T02:38:26.889Z,99.90
2018-06-05T02:40:55.299Z,99.90
2018-06-05T02:43:23.696Z,99.90
2018-06-05T02:45:52.127Z,99.90
2018-06-05T02:48:20.508Z,99.90
2018-06-05T02:50:48.915Z,99.90
2018-06-05T02:53:17.304Z,99.90
2018-06-05T02:55:45.704Z,99.90
2018-06-05T02:58:14.095Z,99.90
2018-06-05T03:00:42.557Z,99.90
2018-06-05T03:03:10.996Z,99.90
2018-06-05T03:05:39.427Z,99.90
2018-06-05T03:08:07.832Z,99.90
2018-06-05T03:10:36.236Z,99.90
2018-06-05T03:13:04.678Z,99.90
2018-06-05T03:15:34.035Z,99.90
2018-06-05T03:18:02.640Z,99.90
2018-06-05T03:20:31.045Z,99.90
2018-06-05T03:22:59.472Z,99.90
2018-06-05T03:25:30.872Z,99.90
2018-06-05T03:27:59.296Z,99.90
2018-06-05T03:30:27.691Z,99.90
2018-06-05T03:32:56.112Z,99.90
2018-06-05T03:35:24.506Z,99.90
2018-06-05T03:37:52.937Z,99.90
2018-06-05T03:40:21.342Z,99.90
2018-06-05T03:42:49.772Z,99.90
2018-06-05T03:45:18.189Z,99.90
2018-06-05T03:47:46.593Z,99.90
2018-06-05T03:50:15.014Z,99.90
2018-06-05T03:52:49.823Z,99.90
2018-06-05T03:55:18.236Z,99.90
2018-06-05T03:57:46.629Z,99.90
2018-06-05T04:00:15.055Z,99.90
2018-06-05T04:02:43.457Z,99.90
2018-06-05T04:05:11.879Z,99.90
2018-06-05T04:07:40.282Z,99.90
2018-06-05T04:10:08.712Z,99.90
2018-06-05T04:12:37.123Z,99.90
2018-06-05T04:15:05.727Z,99.90
2018-06-05T04:17:34.115Z,99.90
2018-06-05T04:20:02.544Z,99.90
2018-06-05T04:22:30.940Z,99.90
2018-06-05T04:24:59.322Z,99.90
2018-06-05T04:27:27.743Z,99.90
2018-06-05T04:29:56.132Z,99.90
2018-06-05T04:34:52.668Z,99.90
2018-06-05T04:37:21.075Z,99.90
2018-06-05T04:39:49.473Z,99.90
2018-06-05T04:42:17.887Z,99.90
2018-06-05T04:44:46.288Z,99.90
2018-06-05T04:47:14.692Z,99.90
2018-06-05T04:49:43.088Z,99.90
2018-06-05T04:52:11.495Z,99.90
2018-06-05T04:54:39.903Z,99.90
2018-06-05T04:57:08.328Z,99.90
2018-06-05T04:59:36.743Z,99.90
2018-06-05T05:02:05.187Z,99.90
2018-06-05T05:04:33.576Z,99.90
2018-06-05T05:07:01.995Z,99.90
2018-06-05T05:09:30.379Z,99.90
2018-06-05T05:11:58.790Z,99.90
2018-06-05T05:14:27.199Z,99.90
2018-06-05T05:16:55.627Z,99.90
2018-06-05T05:19:24.024Z,99.90
2018-06-05T05:21:52.456Z,99.90
2018-06-05T05:24:21.099Z,99.90
2018-06-05T05:26:49.499Z,99.90
2018-06-05T05:29:17.909Z,99.90
2018-06-05T05:31:46.308Z,99.90
2018-06-05T05:34:14.719Z,99.90
2018-06-05T05:36:43.287Z,99.90
2018-06-05T05:39:12.111Z,99.90
2018-06-05T05:41:40.514Z,99.90
2018-06-05T05:44:08.928Z,99.90
2018-06-05T05:46:37.343Z,97.90
2018-06-05T05:49:06.136Z,97.30
2018-06-05T05:51:34.527Z,95.00
2018-06-05T05:54:02.964Z,93.80
2018-06-05T05:56:31.384Z,92.60
2018-06-05T05:58:59.828Z,92.00
2018-06-05T06:01:28.227Z,91.70
2018-06-05T06:03:56.650Z,91.90
2018-06-05T06:06:25.041Z,91.00
2018-06-05T06:08:53.495Z,88.60
2018-06-05T06:11:21.891Z,90.10
2018-06-05T06:13:50.307Z,89.10
2018-06-05T06:16:18.700Z,90.70
2018-06-05T06:18:47.103Z,91.60
2018-06-05T06:21:15.516Z,90.40
2018-06-05T06:23:43.903Z,92.20
2018-06-05T06:26:12.320Z,93.10
2018-06-05T06:28:40.724Z,91.50
2018-06-05T06:31:09.156Z,90.50
2018-06-05T06:33:37.559Z,91.30
2018-06-05T06:36:05.976Z,91.30
2018-06-05T06:38:34.387Z,92.00
2018-06-05T06:41:02.816Z,91.70
2018-06-05T06:43:31.224Z,91.00
2018-06-05T06:45:59.633Z,90.50
2018-06-05T06:48:28.040Z,88.30
2018-06-05T06:50:56.468Z,87.50
2018-06-05T06:53:24.873Z,89.10
2018-06-05T06:55:53.307Z,88.90
2018-06-05T06:58:21.699Z,90.50
2018-06-05T07:00:50.142Z,89.20
2018-06-05T07:03:18.536Z,92.10
2018-06-05T07:05:47.000Z,90.10
2018-06-05T07:08:15.395Z,88.80
2018-06-05T07:10:43.794Z,86.40
2018-06-05T07:13:12.235Z,84.30
2018-06-05T07:15:40.622Z,83.90
2018-06-05T07:18:09.035Z,84.30
2018-06-05T07:20:37.447Z,85.60
2018-06-05T07:23:05.890Z,86.40
2018-06-05T07:25:34.284Z,87.20
2018-06-05T07:28:02.701Z,85.80
2018-06-05T07:30:31.128Z,84.90
2018-06-05T07:33:00.732Z,83.60
2018-06-05T07:35:29.150Z,80.50
2018-06-05T07:37:57.568Z,82.00
2018-06-05T07:42:54.102Z,86.00
2018-06-05T07:45:22.487Z,84.90
2018-06-05T07:47:50.904Z,84.00
2018-06-05T07:50:19.701Z,84.50
2018-06-05T07:52:48.128Z,85.50
2018-06-05T07:55:16.543Z,86.20
2018-06-05T07:57:44.957Z,86.70
2018-06-05T08:00:13.380Z,87.30
2018-06-05T08:02:41.808Z,85.40
2018-06-05T08:05:10.300Z,86.70
2018-06-05T08:07:38.716Z,84.90
2018-06-05T08:10:07.167Z,86.30
2018-06-05T08:12:35.560Z,83.20
2018-06-05T08:15:04.053Z,83.60
2018-06-05T08:17:32.472Z,81.20
2018-06-05T08:20:00.879Z,78.10
2018-06-05T08:22:39.320Z,79.50
2018-06-05T08:25:07.733Z,80.30
2018-06-05T08:27:36.128Z,82.10
2018-06-05T08:30:04.563Z,84.10
2018-06-05T08:32:32.960Z,83.60
2018-06-05T08:35:01.379Z,80.90
2018-06-05T08:37:29.834Z,81.20
2018-06-05T08:39:58.248Z,80.30
2018-06-05T08:44:54.772Z,76.60
2018-06-05T08:47:23.236Z,75.50
2018-06-05T08:49:51.652Z,75.40
2018-06-05T08:52:20.054Z,72.40
2018-06-05T08:57:23.187Z,71.80
2018-06-05T08:59:51.629Z,69.00
2018-06-05T09:02:20.067Z,74.70
2018-06-05T09:04:48.512Z,72.60
2018-06-05T09:07:16.903Z,70.80
2018-06-05T09:09:45.333Z,70.90
2018-06-05T09:12:13.743Z,70.70
2018-06-05T09:14:42.135Z,68.00
2018-06-05T09:17:10.567Z,65.60
2018-06-05T09:19:38.964Z,64.10
2018-06-05T09:22:07.446Z,64.40
2018-06-05T09:24:35.848Z,64.50
2018-06-05T09:27:04.267Z,63.60
2018-06-05T09:29:32.662Z,63.90
2018-06-05T09:32:01.072Z,64.60
2018-06-05T09:34:29.501Z,61.20
2018-06-05T09:37:04.252Z,60.50
2018-06-05T09:39:32.682Z,61.70
2018-06-05T09:42:01.088Z,58.20
2018-06-05T09:44:29.495Z,58.10
2018-06-05T09:46:57.976Z,59.00
2018-06-05T09:49:26.327Z,59.50
2018-06-05T09:51:54.788Z,56.80
2018-06-05T09:54:23.248Z,56.80
2018-06-05T09:56:51.683Z,57.40
2018-06-05T09:59:20.099Z,60.00
2018-06-05T10:01:48.504Z,58.90
2018-06-05T10:04:16.920Z,57.20
2018-06-05T10:06:45.365Z,56.80
2018-06-05T10:09:13.831Z,58.20
2018-06-05T10:11:42.228Z,60.00
2018-06-05T10:14:10.696Z,61.70
2018-06-05T10:16:39.071Z,63.30
2018-06-05T10:19:07.509Z,65.70
2018-06-05T10:21:35.907Z,68.50
2018-06-05T10:24:04.344Z,64.40
2018-06-05T10:26:32.832Z,61.50
2018-06-05T10:29:01.252Z,59.70
2018-06-05T10:31:29.656Z,59.80
2018-06-05T10:33:58.083Z,58.80
2018-06-05T10:36:26.483Z,57.80
2018-06-05T10:38:54.906Z,57.50
2018-06-05T10:41:23.312Z,58.40
2018-06-05T10:43:51.723Z,58.90
2018-06-05T10:46:20.123Z,59.40
2018-06-05T10:48:48.539Z,60.80
2018-06-05T10:51:16.936Z,61.10
2018-06-05T10:53:45.397Z,62.40
2018-06-05T10:58:41.887Z,64.20
2018-06-05T11:01:10.305Z,62.00
2018-06-05T11:03:38.705Z,62.30
2018-06-05T11:06:07.140Z,59.80
2018-06-05T11:08:35.527Z,61.80
2018-06-05T11:11:03.965Z,63.20
2018-06-05T11:13:32.375Z,66.40
2018-06-05T11:16:00.774Z,68.60
2018-06-05T11:18:29.183Z,61.60
2018-06-05T11:20:57.590Z,61.80
2018-06-05T11:23:25.979Z,59.40
2018-06-05T11:25:54.447Z,63.00
2018-06-05T11:28:22.848Z,60.50
2018-06-05T11:30:51.268Z,59.50
2018-06-05T11:33:19.673Z,59.30
2018-06-05T11:35:48.088Z,59.60
2018-06-05T11:38:16.484Z,60.00
2018-06-05T11:40:44.919Z,60.80
2018-06-05T11:43:13.312Z,64.20
2018-06-05T11:45:41.731Z,67.90
2018-06-05T11:48:10.123Z,63.00
2018-06-05T11:50:38.552Z,67.10
2018-06-05T11:53:06.944Z,63.90
2018-06-05T11:55:35.337Z,60.10
2018-06-05T11:58:03.776Z,57.50
2018-06-05T12:00:32.183Z,57.80
2018-06-05T12:03:00.621Z,60.60
2018-06-05T12:05:29.026Z,58.70
2018-06-05T12:07:57.446Z,59.00
2018-06-05T12:10:25.843Z,61.40
2018-06-05T12:12:54.265Z,62.00
2018-06-05T12:15:22.651Z,57.10
2018-06-05T12:17:51.124Z,60.80
2018-06-05T12:20:19.495Z,62.10
2018-06-05T12:22:47.915Z,61.80
2018-06-05T12:25:16.312Z,62.00
2018-06-05T12:27:44.728Z,63.20
2018-06-05T12:30:13.127Z,65.50
2018-06-05T12:32:41.545Z,67.10
2018-06-05T12:35:09.941Z,69.00
2018-06-05T12:37:38.379Z,68.40
2018-06-05T12:40:06.781Z,66.50
2018-06-05T12:42:35.173Z,66.10
2018-06-05T12:45:03.604Z,63.60
2018-06-05T12:47:32.005Z,64.50
2018-06-05T12:50:00.455Z,64.00
2018-06-05T12:52:28.832Z,63.50
2018-06-05T12:54:57.253Z,60.50
2018-06-05T12:57:25.676Z,63.70
2018-06-05T12:59:54.139Z,60.40
2018-06-05T13:04:50.639Z,58.60
2018-06-05T13:07:19.035Z,59.20
2018-06-05T13:09:47.439Z,60.40
2018-06-05T13:12:15.829Z,61.90
2018-06-05T13:17:12.348Z,62.30
2018-06-05T13:19:40.761Z,62.60
2018-06-05T13:22:09.144Z,62.00
2018-06-05T13:24:37.547Z,60.70
2018-06-05T13:29:34.783Z,63.50
2018-06-05T13:32:03.220Z,64.60
2018-06-05T13:34:31.635Z,67.40
2018-06-05T13:37:00.043Z,71.20
2018-06-05T13:39:28.500Z,72.00
2018-06-05T13:41:56.919Z,72.90
2018-06-05T13:44:25.332Z,74.30
2018-06-05T13:46:53.736Z,75.80
2018-06-05T13:49:22.160Z,78.60
2018-06-05T13:51:50.580Z,81.20
2018-06-05T13:54:18.976Z,80.40
2018-06-05T13:56:47.416Z,79.60
2018-06-05T14:01:43.938Z,75.90
2018-06-05T14:04:12.326Z,75.30
2018-06-05T14:06:40.751Z,75.30
2018-06-05T14:09:09.241Z,76.10
2018-06-05T14:11:37.603Z,74.50
2018-06-05T14:14:06.041Z,73.20
2018-06-05T14:16:34.464Z,73.00
2018-06-05T14:19:02.872Z,73.80
2018-06-05T14:21:31.299Z,70.70
2018-06-05T14:23:59.705Z,70.50
2018-06-05T14:26:28.116Z,69.80
2018-06-05T14:28:56.745Z,71.80
2018-06-05T14:31:25.147Z,71.20
2018-06-05T14:33:53.536Z,71.60
2018-06-05T14:38:50.085Z,78.50
2018-06-05T14:41:18.496Z,78.10
2018-06-05T14:43:46.881Z,78.30
2018-06-05T14:46:15.283Z,77.20
2018-06-05T14:48:43.666Z,76.50
2018-06-05T14:51:12.079Z,77.70
2018-06-05T14:53:40.680Z,73.70
2018-06-05T14:56:09.099Z,73.10
2018-06-05T14:58:37.486Z,74.80
2018-06-05T15:01:05.906Z,73.20
2018-06-05T15:03:34.312Z,74.90
2018-06-05T15:06:02.708Z,72.40
2018-06-05T15:08:31.140Z,72.30
2018-06-05T15:10:59.536Z,69.60
2018-06-05T15:13:27.945Z,71.50
2018-06-05T15:15:56.336Z,74.10
2018-06-05T15:18:24.753Z,73.00
2018-06-05T15:20:53.148Z,73.30
2018-06-05T15:23:21.555Z,73.00
2018-06-05T15:25:49.953Z,75.90
2018-06-05T15:28:18.358Z,72.40
2018-06-05T15:30:46.751Z,75.50
2018-06-05T15:33:15.172Z,72.60
2018-06-05T15:35:43.555Z,76.80
2018-06-05T15:38:11.986Z,74.70
2018-06-05T15:40:40.386Z,73.80
2018-06-05T15:43:08.822Z,73.20
2018-06-05T15:45:37.224Z,74.00
2018-06-05T15:48:05.817Z,72.70
2018-06-05T15:50:34.275Z,72.10
2018-06-05T15:53:02.650Z,76.30
2018-06-05T15:55:31.060Z,76.40
2018-06-05T15:57:59.484Z,73.20
2018-06-05T16:00:27.883Z,75.70
2018-06-05T16:02:56.277Z,71.90
2018-06-05T16:05:24.692Z,70.70
2018-06-05T16:07:53.092Z,73.10
2018-06-05T16:10:21.504Z,74.30
2018-06-05T16:12:49.891Z,70.00
2018-06-05T16:15:18.315Z,73.20
2018-06-05T16:17:46.700Z,72.10
2018-06-05T16:20:15.137Z,74.30
2018-06-05T16:22:43.527Z,73.50
2018-06-05T16:25:11.955Z,73.50
2018-06-05T16:27:40.358Z,72.80
2018-06-05T16:30:08.770Z,73.20
2018-06-05T16:32:37.196Z,75.80
2018-06-05T16:35:05.856Z,73.80
2018-06-05T16:37:34.252Z,74.80
2018-06-05T16:40:02.667Z,72.30
2018-06-05T16:42:31.060Z,70.80
2018-06-05T16:44:59.447Z,73.20
2018-06-05T16:47:27.874Z,71.10
2018-06-05T16:49:56.319Z,70.90
2018-06-05T16:52:24.720Z,72.20
2018-06-05T16:54:53.104Z,71.80
2018-06-05T16:57:21.533Z,72.90
2018-06-05T16:59:49.948Z,73.30
2018-06-05T17:02:18.349Z,74.70
2018-06-05T17:04:46.768Z,73.60
2018-06-05T17:07:15.168Z,74.80
2018-06-05T17:09:43.548Z,76.40
2018-06-05T17:12:11.951Z,74.70
2018-06-05T17:14:40.341Z,75.60
2018-06-05T17:17:08.749Z,75.20
2018-06-05T17:19:37.131Z,76.80
2018-06-05T17:22:05.540Z,78.10
2018-06-05T17:24:33.935Z,76.90
2018-06-05T17:27:02.349Z,79.10
2018-06-05T17:29:30.748Z,78.10
2018-06-05T17:31:59.163Z,76.90
2018-06-05T17:34:27.556Z,79.90
2018-06-05T17:36:55.974Z,80.00
2018-06-05T17:41:52.482Z,81.20
2018-06-05T17:44:20.875Z,82.60
2018-06-05T17:46:49.300Z,83.50
2018-06-05T17:49:17.696Z,82.70
2018-06-05T17:51:46.111Z,83.20
2018-06-05T17:54:14.501Z,84.90
2018-06-05T17:56:42.920Z,83.30
2018-06-05T17:59:11.332Z,83.00
2018-06-05T18:01:39.716Z,83.40
2018-06-05T18:04:08.132Z,82.50
2018-06-05T18:06:36.518Z,82.10
2018-06-05T18:09:08.140Z,82.10
2018-06-05T18:11:36.592Z,81.90
2018-06-05T18:14:04.992Z,81.60
2018-06-05T18:16:33.391Z,81.50
2018-06-05T18:19:01.795Z,82.40
2018-06-05T18:21:30.195Z,83.20
2018-06-05T18:26:26.698Z,83.20
2018-06-05T18:28:55.111Z,83.90
2018-06-05T18:31:23.504Z,85.30
2018-06-05T18:33:51.916Z,85.60
2018-06-05T18:36:20.307Z,86.30
2018-06-05T18:38:48.726Z,86.90
2018-06-05T18:41:17.175Z,88.40
2018-06-05T18:43:45.547Z,89.60
2018-06-05T18:46:13.992Z,89.50
2018-06-05T18:48:42.364Z,90.20
2018-06-05T18:51:10.771Z,90.40
2018-06-05T18:53:39.167Z,90.40
2018-06-05T18:56:07.599Z,90.60
2018-06-05T18:58:35.975Z,90.60
2018-06-05T19:01:04.444Z,91.10
2018-06-05T19:03:32.928Z,91.30
2018-06-05T19:06:01.351Z,91.60
2018-06-05T19:08:29.738Z,91.80
2018-06-05T19:10:58.165Z,92.10
2018-06-05T19:13:26.555Z,92.40
2018-06-05T19:15:54.971Z,93.00
2018-06-05T19:18:23.374Z,93.50
2018-06-05T19:20:51.797Z,93.80
2018-06-05T19:23:20.241Z,94.00
2018-06-05T19:25:48.665Z,94.50
2018-06-05T19:28:17.051Z,94.90
2018-06-05T19:30:45.459Z,95.50
2018-06-05T19:33:13.864Z,96.10
2018-06-05T19:35:42.272Z,96.70
2018-06-05T19:38:10.667Z,97.40
2018-06-05T19:40:39.077Z,98.10
2018-06-05T19:43:07.488Z,98.40
2018-06-05T19:45:35.920Z,98.60
2018-06-05T19:48:04.312Z,99.20
2018-06-05T19:50:32.723Z,99.90
2018-06-05T19:53:01.137Z,99.90
2018-06-05T19:55:29.582Z,99.90
2018-06-05T19:57:58.000Z,99.90
2018-06-05T20:00:26.420Z,99.90
2018-06-05T20:02:54.847Z,99.90
2018-06-05T20:05:23.242Z,99.90
2018-06-05T20:07:52.548Z,99.90
2018-06-05T20:10:20.945Z,99.90
2018-06-05T20:12:49.352Z,99.90
2018-06-05T20:15:17.749Z,99.90
2018-06-05T20:17:46.321Z,99.90
2018-06-05T20:20:14.731Z,99.90
2018-06-05T20:22:43.139Z,99.90
2018-06-05T20:25:11.545Z,99.90
2018-06-05T20:27:39.958Z,99.90
2018-06-05T20:30:08.384Z,99.90
2018-06-05T20:32:36.784Z,99.90
2018-06-05T20:35:05.227Z,99.90
2018-06-05T20:37:33.652Z,99.90
2018-06-05T20:40:02.064Z,99.90
2018-06-05T20:42:30.495Z,99.90
2018-06-05T20:44:58.891Z,99.90
2018-06-05T20:47:27.308Z,99.90
2018-06-05T20:49:55.703Z,99.90
2018-06-05T20:52:24.115Z,99.90
2018-06-05T20:54:52.537Z,99.90
2018-06-05T20:57:20.939Z,99.90
2018-06-05T20:59:49.383Z,99.90
2018-06-05T21:02:17.793Z,99.90
2018-06-05T21:04:46.212Z,99.90
2018-06-05T21:07:14.612Z,99.90
2018-06-05T21:09:43.024Z,99.90
2018-06-05T21:12:11.424Z,99.90
2018-06-05T21:14:39.837Z,99.90
2018-06-05T21:17:08.228Z,99.90
2018-06-05T21:19:36.668Z,99.90
2018-06-05T21:22:05.087Z,99.90
2018-06-05T21:24:33.494Z,99.90
2018-06-05T21:27:01.898Z,99.90
2018-06-05T21:29:30.319Z,99.90
2018-06-05T21:31:58.735Z,99.90
2018-06-05T21:34:27.152Z,99.90
2018-06-05T21:36:55.575Z,99.90
2018-06-05T21:39:23.981Z,99.90
2018-06-05T21:41:52.379Z,99.90
2018-06-05T21:44:20.810Z,99.90
2018-06-05T21:46:49.196Z,99.90
2018-06-05T21:49:17.614Z,99.90
2018-06-05T21:51:46.012Z,99.90
2018-06-05T21:54:14.396Z,99.90
2018-06-05T21:56:42.813Z,99.90
2018-06-05T21:59:11.223Z,99.90
2018-06-05T22:01:39.647Z,99.90
2018-06-05T22:04:08.049Z,99.90
2018-06-05T22:06:36.460Z,99.90
2018-06-05T22:09:07.868Z,99.90
2018-06-05T22:11:36.284Z,99.90
2018-06-05T22:14:04.696Z,99.90
2018-06-05T22:16:33.128Z,99.90
2018-06-05T22:19:01.514Z,99.90
2018-06-05T22:21:29.933Z,99.90
2018-06-05T22:23:58.331Z,99.90
2018-06-05T22:26:27.539Z,99.90
2018-06-05T22:28:55.953Z,99.90
2018-06-05T22:31:24.367Z,99.90
2018-06-05T22:33:52.771Z,99.90
2018-06-05T22:36:21.199Z,99.90
2018-06-05T22:38:49.595Z,99.90
2018-06-05T22:41:18.007Z,99.90
2018-06-05T22:43:46.391Z,99.90
2018-06-05T22:46:14.800Z,99.90
2018-06-05T22:48:43.192Z,99.90
2018-06-05T22:51:11.589Z,99.90
2018-06-05T22:53:40.008Z,99.90
2018-06-05T22:56:08.408Z,99.90
2018-06-05T22:58:36.874Z,99.90
2018-06-05T23:01:05.295Z,99.90
2018-06-05T23:03:33.700Z,99.90
2018-06-05T23:06:02.100Z,99.90
2018-06-05T23:10:58.614Z,99.90
2018-06-05T23:13:27.068Z,99.90
2018-06-05T23:15:55.469Z,99.90
2018-06-05T23:18:23.883Z,99.90
2018-06-05T23:20:52.292Z,99.90
2018-06-05T23:23:20.744Z,99.90
2018-06-05T23:25:49.131Z,99.90
2018-06-05T23:28:17.539Z,99.90
2018-06-05T23:30:45.929Z,99.90
2018-06-05T23:33:14.340Z,99.90
2018-06-05T23:35:42.740Z,99.90
2018-06-05T23:38:11.160Z,99.90
2018-06-05T23:40:39.557Z,99.90
2018-06-05T23:43:07.971Z,99.90
2018-06-05T23:45:36.356Z,99.90
2018-06-05T23:48:04.975Z,99.90
2018-06-05T23:50:33.364Z,99.90
2018-06-05T23:53:01.756Z,99.90
2018-06-05T23:55:30.181Z,99.90
2018-06-05T23:57:58.574Z,99.90
